TimeAKDT,TemperatureF,Dew PointF,Humidity,Sea Level PressureIn,VisibilityMPH,Wind Direction,Wind SpeedMPH,Gust SpeedMPH,PrecipitationIn,Events,Conditions,WindDirDegrees,DateUTC
12:53 AM,42.1,30.9,65,30.14,10.0,SSW,26.5,38.0,N/A,,Scattered Clouds,210,2013-05-19 08:53:00
1:53 AM,42.1,30.9,65,30.17,10.0,SSW,24.2,29.9,N/A,,Overcast,210,2013-05-19 09:53:00
2:53 AM,41.0,32.0,70,30.20,10.0,SSW,20.7,33.4,N/A,,Partly Cloudy,210,2013-05-19 10:53:00
3:53 AM,41.0,28.0,60,30.22,10.0,SW,20.7,26.5,N/A,,Mostly Cloudy,220,2013-05-19 11:53:00
4:53 AM,41.0,28.9,62,30.26,10.0,SSW,23.0,-,N/A,,Overcast,210,2013-05-19 12:53:00
5:53 AM,41.0,30.9,67,30.28,10.0,SSW,23.0,29.9,N/A,,Mostly Cloudy,210,2013-05-19 13:53:00
6:53 AM,39.9,30.9,70,30.32,10.0,SSW,13.8,26.5,N/A,,Overcast,200,2013-05-19 14:53:00
7:53 AM,41.0,32.0,70,30.33,10.0,SSW,20.7,29.9,N/A,,Overcast,200,2013-05-19 15:53:00
8:53 AM,42.1,33.1,70,30.35,10.0,SSW,24.2,29.9,N/A,,Overcast,200,2013-05-19 16:53:00
9:53 AM,42.1,32.0,67,30.36,10.0,SSW,27.6,35.7,N/A,,Overcast,200,2013-05-19 17:53:00
10:53 AM,44.1,32.0,63,30.38,10.0,SSW,20.7,-,N/A,,Overcast,200,2013-05-19 18:53:00
11:53 AM,45.0,32.0,60,30.39,10.0,SSW,19.6,-,N/A,,Overcast,200,2013-05-19 19:53:00
12:53 PM,46.0,30.0,54,30.39,10.0,SSW,20.7,-,N/A,,Mostly Cloudy,200,2013-05-19 20:53:00
1:53 PM,46.0,33.1,61,30.40,10.0,SSW,20.7,-,N/A,,Mostly Cloudy,210,2013-05-19 21:53:00
2:53 PM,46.9,30.9,54,30.41,10.0,SSW,21.9,-,N/A,,Clear,210,2013-05-19 22:53:00
3:53 PM,46.9,28.0,48,30.42,10.0,SSW,18.4,-,N/A,,Clear,200,2013-05-19 23:53:00
4:53 PM,46.9,27.0,46,30.42,10.0,SSW,16.1,-,N/A,,Mostly Cloudy,200,2013-05-20 00:53:00
5:53 PM,46.9,27.0,46,30.42,10.0,SSW,13.8,-,N/A,,Partly Cloudy,200,2013-05-20 01:53:00
6:53 PM,46.0,28.0,50,30.42,10.0,SSW,15.0,-,N/A,,Clear,200,2013-05-20 02:53:00
7:53 PM,45.0,28.0,52,30.44,10.0,SSW,10.4,-,N/A,,Clear,200,2013-05-20 03:53:00
8:53 PM,44.1,28.0,53,30.45,10.0,SSW,10.4,-,N/A,,Overcast,200,2013-05-20 04:53:00
9:53 PM,43.0,28.9,58,30.47,10.0,SSW,6.9,-,N/A,,Clear,200,2013-05-20 05:53:00
10:53 PM,43.0,30.9,62,30.49,10.0,South,9.2,-,N/A,,Scattered Clouds,190,2013-05-20 06:53:00
11:53 PM,41.0,30.9,67,30.50,10.0,Variable,4.6,-,N/A,,Partly Cloudy,0,2013-05-20 07:53:00